sensor_id;sensor_type;location;lat;lon;timestamp;pressure;altitude;pressure_sealevel;temperature;humidity
18527;BME280;9393;42.158;24.748;2023-05-25T00:01:09;99461.47;;;20.40;71.17
18527;BME280;9393;42.158;24.748;2023-05-25T00:04:13;99454.75;;;20.37;71.25
18527;BME280;9393;42.158;24.748;2023-05-25T00:07:20;99454.94;;;20.23;72.04
18527;BME280;9393;42.158;24.748;2023-05-25T00:10:24;99461.88;;;20.24;72.58
18527;BME280;9393;42.158;24.748;2023-05-25T00:13:28;99459.84;;;20.39;71.66
18527;BME280;9393;42.158;24.748;2023-05-25T00:16:33;99470.22;;;20.47;71.84
18527;BME280;9393;42.158;24.748;2023-05-25T00:19:39;99472.06;;;20.27;73.10
18527;BME280;9393;42.158;24.748;2023-05-25T00:22:45;99465.97;;;20.13;73.67
18527;BME280;9393;42.158;24.748;2023-05-25T00:25:49;99460.84;;;20.18;73.90
18527;BME280;9393;42.158;24.748;2023-05-25T00:28:53;99465.34;;;20.31;72.84
18527;BME280;9393;42.158;24.748;2023-05-25T00:31:57;99465.34;;;20.37;72.85
18527;BME280;9393;42.158;24.748;2023-05-25T00:35:01;99453.97;;;20.30;73.41
18527;BME280;9393;42.158;24.748;2023-05-25T00:38:11;99456.16;;;20.07;74.74
18527;BME280;9393;42.158;24.748;2023-05-25T00:41:16;99446.22;;;20.02;75.13
18527;BME280;9393;42.158;24.748;2023-05-25T00:44:20;99452.91;;;20.18;74.70
18527;BME280;9393;42.158;24.748;2023-05-25T00:47:26;99451.06;;;20.18;74.22
18527;BME280;9393;42.158;24.748;2023-05-25T00:50:36;99455.38;;;20.13;74.40
18527;BME280;9393;42.158;24.748;2023-05-25T00:53:42;99457.81;;;19.82;75.96
18527;BME280;9393;42.158;24.748;2023-05-25T00:56:50;99459.66;;;19.88;75.54
18527;BME280;9393;42.158;24.748;2023-05-25T00:59:55;99455.16;;;19.82;76.30
18527;BME280;9393;42.158;24.748;2023-05-25T01:03:05;99464.13;;;19.87;75.95
18527;BME280;9393;42.158;24.748;2023-05-25T01:06:14;99464.34;;;19.92;75.44
18527;BME280;9393;42.158;24.748;2023-05-25T01:09:21;99459.41;;;19.89;75.63
18527;BME280;9393;42.158;24.748;2023-05-25T01:12:27;99456.19;;;19.94;75.35
18527;BME280;9393;42.158;24.748;2023-05-25T01:15:32;99460.06;;;19.91;75.26
18527;BME280;9393;42.158;24.748;2023-05-25T01:18:36;99453.94;;;19.64;76.72
18527;BME280;9393;42.158;24.748;2023-05-25T01:21:55;99451.06;;;19.66;76.57
18527;BME280;9393;42.158;24.748;2023-05-25T01:25:06;99439.47;;;19.60;76.27
18527;BME280;9393;42.158;24.748;2023-05-25T01:28:16;99448.00;;;19.56;76.39
18527;BME280;9393;42.158;24.748;2023-05-25T01:31:21;99445.34;;;19.49;75.88
18527;BME280;9393;42.158;24.748;2023-05-25T01:34:27;99435.72;;;19.29;76.54
18527;BME280;9393;42.158;24.748;2023-05-25T01:37:36;99440.25;;;19.41;76.39
18527;BME280;9393;42.158;24.748;2023-05-25T01:40:41;99445.56;;;19.48;75.62
18527;BME280;9393;42.158;24.748;2023-05-25T01:43:45;99435.78;;;19.48;75.45
18527;BME280;9393;42.158;24.748;2023-05-25T01:46:53;99447.19;;;19.49;75.67
18527;BME280;9393;42.158;24.748;2023-05-25T01:50:06;99444.94;;;19.46;75.78
18527;BME280;9393;42.158;24.748;2023-05-25T01:53:17;99443.06;;;19.40;76.35
18527;BME280;9393;42.158;24.748;2023-05-25T01:56:23;99441.00;;;19.22;76.88
18527;BME280;9393;42.158;24.748;2023-05-25T01:59:30;99442.66;;;19.30;76.85
18527;BME280;9393;42.158;24.748;2023-05-25T02:02:37;99448.09;;;19.22;77.13
18527;BME280;9393;42.158;24.748;2023-05-25T02:05:44;99454.22;;;19.22;77.19
18527;BME280;9393;42.158;24.748;2023-05-25T02:08:49;99457.41;;;19.04;78.71
18527;BME280;9393;42.158;24.748;2023-05-25T02:11:53;99459.84;;;18.99;78.13
18527;BME280;9393;42.158;24.748;2023-05-25T02:14:57;99459.41;;;18.89;78.23
18527;BME280;9393;42.158;24.748;2023-05-25T02:18:01;99457.53;;;18.90;78.16
18527;BME280;9393;42.158;24.748;2023-05-25T02:21:07;99458.72;;;18.74;78.54
18527;BME280;9393;42.158;24.748;2023-05-25T02:24:12;99457.34;;;18.85;78.38
18527;BME280;9393;42.158;24.748;2023-05-25T02:27:16;99460.44;;;19.01;77.52
18527;BME280;9393;42.158;24.748;2023-05-25T02:30:22;99466.31;;;18.97;77.25
18527;BME280;9393;42.158;24.748;2023-05-25T02:33:28;99467.50;;;18.88;77.58
18527;BME280;9393;42.158;24.748;2023-05-25T02:36:32;99467.50;;;18.88;77.35
18527;BME280;9393;42.158;24.748;2023-05-25T02:39:40;99461.56;;;18.79;77.97
18527;BME280;9393;42.158;24.748;2023-05-25T02:42:44;99460.16;;;18.83;77.70
18527;BME280;9393;42.158;24.748;2023-05-25T02:45:49;99460.41;;;18.88;77.58
18527;BME280;9393;42.158;24.748;2023-05-25T02:48:53;99462.41;;;18.86;77.83
18527;BME280;9393;42.158;24.748;2023-05-25T02:51:59;99461.28;;;19.02;76.82
18527;BME280;9393;42.158;24.748;2023-05-25T02:55:05;99468.97;;;19.03;76.24
18527;BME280;9393;42.158;24.748;2023-05-25T02:58:13;99469.41;;;19.07;75.96
18527;BME280;9393;42.158;24.748;2023-05-25T03:01:52;99467.97;;;19.04;76.01
18527;BME280;9393;42.158;24.748;2023-05-25T03:04:59;99477.50;;;18.92;76.24
18527;BME280;9393;42.158;24.748;2023-05-25T03:08:07;99474.47;;;18.95;76.36
18527;BME280;9393;42.158;24.748;2023-05-25T03:11:12;99477.25;;;18.87;76.26
18527;BME280;9393;42.158;24.748;2023-05-25T03:14:17;99481.09;;;18.78;76.58
18527;BME280;9393;42.158;24.748;2023-05-25T03:17:34;99489.13;;;18.63;77.50
18527;BME280;9393;42.158;24.748;2023-05-25T03:20:39;99483.09;;;18.76;76.77
18527;BME280;9393;42.158;24.748;2023-05-25T03:23:44;99497.44;;;19.01;75.48
18527;BME280;9393;42.158;24.748;2023-05-25T03:26:49;99493.00;;;19.02;75.81
18527;BME280;9393;42.158;24.748;2023-05-25T03:29:53;99501.22;;;19.27;74.85
18527;BME280;9393;42.158;24.748;2023-05-25T03:32:58;99500.81;;;19.30;74.05
18527;BME280;9393;42.158;24.748;2023-05-25T03:36:08;99497.88;;;19.59;73.11
18527;BME280;9393;42.158;24.748;2023-05-25T03:39:14;99488.53;;;19.70;72.37
18527;BME280;9393;42.158;24.748;2023-05-25T03:42:20;99495.22;;;19.59;72.28
18527;BME280;9393;42.158;24.748;2023-05-25T03:45:24;99489.50;;;19.49;73.04
18527;BME280;9393;42.158;24.748;2023-05-25T03:48:28;99484.63;;;19.59;72.66
18527;BME280;9393;42.158;24.748;2023-05-25T03:51:32;99487.91;;;19.48;72.90
18527;BME280;9393;42.158;24.748;2023-05-25T03:54:36;99490.56;;;19.74;72.04
18527;BME280;9393;42.158;24.748;2023-05-25T03:57:41;99501.34;;;19.79;71.36
18527;BME280;9393;42.158;24.748;2023-05-25T04:00:45;99502.81;;;19.88;71.34
18527;BME280;9393;42.158;24.748;2023-05-25T04:03:51;99502.19;;;19.86;71.20
18527;BME280;9393;42.158;24.748;2023-05-25T04:06:55;99500.97;;;19.95;70.93
18527;BME280;9393;42.158;24.748;2023-05-25T04:10:00;99505.81;;;19.59;71.68
18527;BME280;9393;42.158;24.748;2023-05-25T04:13:05;99502.56;;;19.57;71.92
18527;BME280;9393;42.158;24.748;2023-05-25T04:16:09;99494.84;;;19.75;71.05
18527;BME280;9393;42.158;24.748;2023-05-25T04:19:15;99502.38;;;19.65;71.57
18527;BME280;9393;42.158;24.748;2023-05-25T04:22:19;99499.75;;;19.85;70.79
18527;BME280;9393;42.158;24.748;2023-05-25T04:25:23;99503.22;;;19.98;69.79
18527;BME280;9393;42.158;24.748;2023-05-25T04:28:32;99506.28;;;20.08;69.98
18527;BME280;9393;42.158;24.748;2023-05-25T04:31:48;99512.38;;;20.15;69.51
18527;BME280;9393;42.158;24.748;2023-05-25T04:35:11;99514.81;;;20.04;70.34
18527;BME280;9393;42.158;24.748;2023-05-25T04:38:19;99516.88;;;20.35;69.32
18527;BME280;9393;42.158;24.748;2023-05-25T04:41:24;99513.19;;;20.55;68.68
18527;BME280;9393;42.158;24.748;2023-05-25T04:44:35;99504.22;;;20.63;68.14
18527;BME280;9393;42.158;24.748;2023-05-25T04:47:42;99508.31;;;20.39;68.80
18527;BME280;9393;42.158;24.748;2023-05-25T04:50:46;99510.78;;;20.41;68.91
18527;BME280;9393;42.158;24.748;2023-05-25T04:53:50;99508.81;;;20.94;67.43
18527;BME280;9393;42.158;24.748;2023-05-25T04:56:54;99510.63;;;21.06;66.98
18527;BME280;9393;42.158;24.748;2023-05-25T05:00:00;99513.06;;;21.14;66.55
18527;BME280;9393;42.158;24.748;2023-05-25T05:03:07;99508.44;;;21.41;66.08
18527;BME280;9393;42.158;24.748;2023-05-25T05:06:11;99510.88;;;21.43;65.59
18527;BME280;9393;42.158;24.748;2023-05-25T05:09:15;99511.44;;;21.58;65.39
18527;BME280;9393;42.158;24.748;2023-05-25T05:12:20;99521.53;;;21.36;66.48
18527;BME280;9393;42.158;24.748;2023-05-25T05:15:27;99516.75;;;21.83;65.33
18527;BME280;9393;42.158;24.748;2023-05-25T05:18:33;99516.66;;;21.71;65.05
18527;BME280;9393;42.158;24.748;2023-05-25T05:21:37;99508.34;;;21.61;66.01
18527;BME280;9393;42.158;24.748;2023-05-25T05:24:42;99508.09;;;21.62;65.58
18527;BME280;9393;42.158;24.748;2023-05-25T05:27:52;99512.78;;;21.29;66.49
18527;BME280;9393;42.158;24.748;2023-05-25T05:31:04;99517.47;;;21.72;64.20
18527;BME280;9393;42.158;24.748;2023-05-25T05:34:08;99527.03;;;21.73;63.83
18527;BME280;9393;42.158;24.748;2023-05-25T05:37:13;99518.56;;;21.57;64.31
18527;BME280;9393;42.158;24.748;2023-05-25T05:40:17;99516.63;;;22.09;62.65
18527;BME280;9393;42.158;24.748;2023-05-25T05:43:21;99520.50;;;22.31;62.08
18527;BME280;9393;42.158;24.748;2023-05-25T05:46:28;99518.13;;;22.66;61.14
18527;BME280;9393;42.158;24.748;2023-05-25T05:49:32;99516.56;;;22.58;61.37
18527;BME280;9393;42.158;24.748;2023-05-25T05:52:37;99525.03;;;22.49;61.98
18527;BME280;9393;42.158;24.748;2023-05-25T05:55:41;99525.09;;;22.67;62.20
18527;BME280;9393;42.158;24.748;2023-05-25T05:58:47;99514.34;;;22.80;61.70
18527;BME280;9393;42.158;24.748;2023-05-25T06:01:54;99517.72;;;22.87;61.39
18527;BME280;9393;42.158;24.748;2023-05-25T06:04:59;99517.59;;;22.82;61.26
18527;BME280;9393;42.158;24.748;2023-05-25T06:08:03;99519.38;;;22.63;59.28
18527;BME280;9393;42.158;24.748;2023-05-25T06:11:10;99521.22;;;22.63;58.90
18527;BME280;9393;42.158;24.748;2023-05-25T06:14:15;99515.28;;;22.68;59.59
18527;BME280;9393;42.158;24.748;2023-05-25T06:17:22;99520.63;;;22.86;58.64
18527;BME280;9393;42.158;24.748;2023-05-25T06:20:28;99521.72;;;22.96;58.83
18527;BME280;9393;42.158;24.748;2023-05-25T06:23:32;99528.75;;;22.66;58.91
18527;BME280;9393;42.158;24.748;2023-05-25T06:26:36;99522.16;;;22.75;58.33
18527;BME280;9393;42.158;24.748;2023-05-25T06:29:40;99533.97;;;23.34;57.61
18527;BME280;9393;42.158;24.748;2023-05-25T06:32:46;99530.72;;;23.50;58.23
18527;BME280;9393;42.158;24.748;2023-05-25T06:35:51;99538.56;;;23.75;57.29
18527;BME280;9393;42.158;24.748;2023-05-25T06:38:59;99545.84;;;24.21;56.25
18527;BME280;9393;42.158;24.748;2023-05-25T06:42:04;99548.72;;;24.07;56.00
18527;BME280;9393;42.158;24.748;2023-05-25T06:45:08;99538.78;;;24.14;54.99
18527;BME280;9393;42.158;24.748;2023-05-25T06:48:14;99537.09;;;24.67;54.13
18527;BME280;9393;42.158;24.748;2023-05-25T06:51:18;99531.53;;;24.33;54.37
18527;BME280;9393;42.158;24.748;2023-05-25T06:54:24;99530.00;;;24.95;52.15
18527;BME280;9393;42.158;24.748;2023-05-25T06:57:28;99527.59;;;25.34;51.97
18527;BME280;9393;42.158;24.748;2023-05-25T07:00:32;99525.03;;;25.67;51.03
18527;BME280;9393;42.158;24.748;2023-05-25T07:03:38;99539.22;;;25.68;50.03
18527;BME280;9393;42.158;24.748;2023-05-25T07:06:42;99532.16;;;25.50;50.00
18527;BME280;9393;42.158;24.748;2023-05-25T07:09:46;99525.34;;;25.42;51.08
18527;BME280;9393;42.158;24.748;2023-05-25T07:12:50;99535.03;;;26.05;49.60
18527;BME280;9393;42.158;24.748;2023-05-25T07:15:54;99533.22;;;26.39;48.41
18527;BME280;9393;42.158;24.748;2023-05-25T07:19:00;99535.69;;;26.79;46.00
18527;BME280;9393;42.158;24.748;2023-05-25T07:22:04;99526.53;;;26.96;45.91
18527;BME280;9393;42.158;24.748;2023-05-25T07:25:08;99531.38;;;26.78;45.11
18527;BME280;9393;42.158;24.748;2023-05-25T07:28:12;99530.66;;;26.82;44.85
18527;BME280;9393;42.158;24.748;2023-05-25T07:31:17;99528.47;;;27.01;44.57
18527;BME280;9393;42.158;24.748;2023-05-25T07:34:22;99525.31;;;27.26;44.78
18527;BME280;9393;42.158;24.748;2023-05-25T07:37:29;99538.59;;;27.16;44.94
18527;BME280;9393;42.158;24.748;2023-05-25T07:40:33;99533.91;;;27.49;44.53
18527;BME280;9393;42.158;24.748;2023-05-25T07:43:37;99531.28;;;27.54;44.61
18527;BME280;9393;42.158;24.748;2023-05-25T07:46:42;99534.81;;;27.38;44.71
18527;BME280;9393;42.158;24.748;2023-05-25T07:49:47;99523.75;;;27.08;44.90
18527;BME280;9393;42.158;24.748;2023-05-25T07:52:51;99530.09;;;27.72;44.21
18527;BME280;9393;42.158;24.748;2023-05-25T07:55:56;99525.94;;;27.11;45.10
18527;BME280;9393;42.158;24.748;2023-05-25T07:59:00;99526.75;;;27.11;45.72
18527;BME280;9393;42.158;24.748;2023-05-25T08:02:04;99527.91;;;27.42;45.15
18527;BME280;9393;42.158;24.748;2023-05-25T08:05:09;99539.13;;;27.61;45.93
18527;BME280;9393;42.158;24.748;2023-05-25T08:08:14;99537.56;;;27.43;46.58
18527;BME280;9393;42.158;24.748;2023-05-25T08:11:23;99542.75;;;27.50;46.89
18527;BME280;9393;42.158;24.748;2023-05-25T08:14:28;99531.72;;;27.46;47.43
18527;BME280;9393;42.158;24.748;2023-05-25T08:17:32;99530.84;;;27.19;46.96
18527;BME280;9393;42.158;24.748;2023-05-25T08:20:37;99533.47;;;27.14;47.72
18527;BME280;9393;42.158;24.748;2023-05-25T08:23:42;99524.56;;;27.52;46.84
18527;BME280;9393;42.158;24.748;2023-05-25T08:26:46;99524.41;;;27.42;47.08
18527;BME280;9393;42.158;24.748;2023-05-25T08:29:56;99526.97;;;27.32;47.39
18527;BME280;9393;42.158;24.748;2023-05-25T08:33:00;99515.66;;;27.46;47.86
18527;BME280;9393;42.158;24.748;2023-05-25T08:36:06;99514.44;;;27.59;46.52
18527;BME280;9393;42.158;24.748;2023-05-25T08:39:10;99515.13;;;28.03;45.56
18527;BME280;9393;42.158;24.748;2023-05-25T08:42:14;99517.56;;;28.41;45.67
18527;BME280;9393;42.158;24.748;2023-05-25T08:45:18;99518.44;;;28.94;43.71
18527;BME280;9393;42.158;24.748;2023-05-25T08:48:37;99513.25;;;29.44;42.42
18527;BME280;9393;42.158;24.748;2023-05-25T08:51:48;99509.91;;;29.02;42.68
18527;BME280;9393;42.158;24.748;2023-05-25T08:54:53;99508.94;;;28.71;42.36
18527;BME280;9393;42.158;24.748;2023-05-25T08:58:02;99509.44;;;29.20;41.67
18527;BME280;9393;42.158;24.748;2023-05-25T09:01:14;99521.13;;;29.81;40.89
18527;BME280;9393;42.158;24.748;2023-05-25T09:04:19;99513.88;;;29.77;40.84
18527;BME280;9393;42.158;24.748;2023-05-25T09:07:27;99510.41;;;30.01;40.00
18527;BME280;9393;42.158;24.748;2023-05-25T09:10:32;99503.94;;;30.28;39.60
18527;BME280;9393;42.158;24.748;2023-05-25T09:13:36;99497.50;;;29.98;39.03
18527;BME280;9393;42.158;24.748;2023-05-25T09:16:41;99495.88;;;30.28;37.70
18527;BME280;9393;42.158;24.748;2023-05-25T09:19:46;99493.44;;;30.21;37.49
18527;BME280;9393;42.158;24.748;2023-05-25T09:22:51;99489.09;;;30.55;37.46
18527;BME280;9393;42.158;24.748;2023-05-25T09:25:56;99485.81;;;31.38;36.39
18527;BME280;9393;42.158;24.748;2023-05-25T09:29:00;99479.78;;;31.12;36.47
18527;BME280;9393;42.158;24.748;2023-05-25T09:32:05;99480.41;;;30.89;36.22
18527;BME280;9393;42.158;24.748;2023-05-25T09:35:10;99480.91;;;31.01;35.88
18527;BME280;9393;42.158;24.748;2023-05-25T09:38:17;99482.66;;;30.62;34.75
18527;BME280;9393;42.158;24.748;2023-05-25T09:41:21;99481.25;;;30.69;35.00
18527;BME280;9393;42.158;24.748;2023-05-25T09:44:28;99480.91;;;31.01;34.46
18527;BME280;9393;42.158;24.748;2023-05-25T09:47:35;99465.81;;;31.54;33.27
18527;BME280;9393;42.158;24.748;2023-05-25T09:50:39;99454.09;;;31.25;33.38
18527;BME280;9393;42.158;24.748;2023-05-25T09:53:45;99460.13;;;31.12;33.92
18527;BME280;9393;42.158;24.748;2023-05-25T09:56:50;99449.06;;;30.44;34.41
18527;BME280;9393;42.158;24.748;2023-05-25T09:59:54;99445.34;;;29.99;35.32
18527;BME280;9393;42.158;24.748;2023-05-25T10:02:59;99445.06;;;29.91;36.13
18527;BME280;9393;42.158;24.748;2023-05-25T10:06:03;99441.28;;;29.56;36.79
18527;BME280;9393;42.158;24.748;2023-05-25T10:09:10;99442.59;;;29.39;36.59
18527;BME280;9393;42.158;24.748;2023-05-25T10:12:18;99441.56;;;29.70;36.02
18527;BME280;9393;42.158;24.748;2023-05-25T10:15:22;99440.69;;;30.50;35.54
18527;BME280;9393;42.158;24.748;2023-05-25T10:18:28;99438.22;;;30.64;34.16
18527;BME280;9393;42.158;24.748;2023-05-25T10:21:36;99434.97;;;31.26;32.67
18527;BME280;9393;42.158;24.748;2023-05-25T10:24:51;99434.66;;;31.33;33.60
18527;BME280;9393;42.158;24.748;2023-05-25T10:27:59;99435.09;;;31.50;31.64
18527;BME280;9393;42.158;24.748;2023-05-25T10:31:03;99447.25;;;31.81;31.92
18527;BME280;9393;42.158;24.748;2023-05-25T10:34:08;99459.09;;;30.97;33.35
18527;BME280;9393;42.158;24.748;2023-05-25T10:37:13;99466.84;;;30.15;34.07
18527;BME280;9393;42.158;24.748;2023-05-25T10:40:21;99458.22;;;29.77;36.13
18527;BME280;9393;42.158;24.748;2023-05-25T10:43:26;99449.59;;;29.40;37.44
18527;BME280;9393;42.158;24.748;2023-05-25T10:46:30;99438.47;;;28.96;37.90
18527;BME280;9393;42.158;24.748;2023-05-25T10:49:51;99443.72;;;28.24;38.89
18527;BME280;9393;42.158;24.748;2023-05-25T10:52:59;99443.16;;;28.17;39.82
18527;BME280;9393;42.158;24.748;2023-05-25T10:56:06;99441.94;;;28.02;39.91
18527;BME280;9393;42.158;24.748;2023-05-25T10:59:12;99445.19;;;27.73;40.82
18527;BME280;9393;42.158;24.748;2023-05-25T11:02:16;99446.66;;;27.32;44.26
18527;BME280;9393;42.158;24.748;2023-05-25T11:05:33;99439.81;;;26.92;46.68
18527;BME280;9393;42.158;24.748;2023-05-25T11:08:51;99443.06;;;26.78;47.04
18527;BME280;9393;42.158;24.748;2023-05-25T11:12:02;99448.69;;;26.54;48.72
18527;BME280;9393;42.158;24.748;2023-05-25T11:15:09;99436.28;;;26.70;48.40
18527;BME280;9393;42.158;24.748;2023-05-25T11:18:16;99442.44;;;26.49;48.60
18527;BME280;9393;42.158;24.748;2023-05-25T11:24:42;99457.66;;;26.27;47.11
18527;BME280;9393;42.158;24.748;2023-05-25T11:27:49;99448.88;;;26.14;47.35
18527;BME280;9393;42.158;24.748;2023-05-25T11:30:55;99450.03;;;26.19;51.36
18527;BME280;9393;42.158;24.748;2023-05-25T11:34:01;99454.72;;;25.78;55.49
18527;BME280;9393;42.158;24.748;2023-05-25T11:37:06;99457.06;;;25.58;57.42
18527;BME280;9393;42.158;24.748;2023-05-25T11:40:13;99452.75;;;25.90;56.37
18527;BME280;9393;42.158;24.748;2023-05-25T11:43:18;99448.56;;;25.94;56.34
18527;BME280;9393;42.158;24.748;2023-05-25T11:46:24;99441.09;;;26.13;55.33
18527;BME280;9393;42.158;24.748;2023-05-25T11:49:28;99443.75;;;26.46;55.13
18527;BME280;9393;42.158;24.748;2023-05-25T11:52:32;99443.03;;;26.94;54.06
18527;BME280;9393;42.158;24.748;2023-05-25T11:55:36;99438.28;;;27.23;52.48
18527;BME280;9393;42.158;24.748;2023-05-25T11:58:44;99432.50;;;26.66;53.82
18527;BME280;9393;42.158;24.748;2023-05-25T12:01:56;99435.53;;;26.53;54.36
18527;BME280;9393;42.158;24.748;2023-05-25T12:05:00;99427.34;;;26.81;52.86
18527;BME280;9393;42.158;24.748;2023-05-25T12:08:05;99427.19;;;27.15;52.49
18527;BME280;9393;42.158;24.748;2023-05-25T12:11:09;99425.28;;;27.95;50.20
18527;BME280;9393;42.158;24.748;2023-05-25T12:14:16;99428.47;;;28.34;46.36
18527;BME280;9393;42.158;24.748;2023-05-25T12:17:20;99425.72;;;28.19;47.19
18527;BME280;9393;42.158;24.748;2023-05-25T12:20:25;99413.25;;;28.40;45.57
18527;BME280;9393;42.158;24.748;2023-05-25T12:23:29;99411.09;;;28.42;44.06
18527;BME280;9393;42.158;24.748;2023-05-25T12:26:34;99424.44;;;28.84;43.57
18527;BME280;9393;42.158;24.748;2023-05-25T12:29:46;99422.03;;;28.82;43.80
18527;BME280;9393;42.158;24.748;2023-05-25T12:32:54;99420.47;;;29.01;42.36
18527;BME280;9393;42.158;24.748;2023-05-25T12:36:05;99423.78;;;29.29;41.97
18527;BME280;9393;42.158;24.748;2023-05-25T12:39:11;99414.59;;;28.99;42.24
18527;BME280;9393;42.158;24.748;2023-05-25T12:42:16;99413.50;;;29.10;42.88
18527;BME280;9393;42.158;24.748;2023-05-25T12:45:22;99423.28;;;29.47;42.67
18527;BME280;9393;42.158;24.748;2023-05-25T12:48:26;99427.06;;;29.86;42.61
18527;BME280;9393;42.158;24.748;2023-05-25T12:51:37;99424.38;;;29.61;41.89
18527;BME280;9393;42.158;24.748;2023-05-25T12:54:42;99414.34;;;30.47;39.66
18527;BME280;9393;42.158;24.748;2023-05-25T12:57:47;99416.56;;;29.75;37.50
18527;BME280;9393;42.158;24.748;2023-05-25T13:00:55;99422.75;;;29.40;37.95
18527;BME280;9393;42.158;24.748;2023-05-25T13:03:59;99423.25;;;28.54;39.82
18527;BME280;9393;42.158;24.748;2023-05-25T13:07:04;99420.66;;;28.28;41.14
18527;BME280;9393;42.158;24.748;2023-05-25T13:10:09;99424.63;;;27.51;43.85
18527;BME280;9393;42.158;24.748;2023-05-25T13:13:13;99430.88;;;27.08;46.77
18527;BME280;9393;42.158;24.748;2023-05-25T13:16:18;99429.31;;;27.13;47.87
18527;BME280;9393;42.158;24.748;2023-05-25T13:19:24;99430.19;;;26.96;48.83
18527;BME280;9393;42.158;24.748;2023-05-25T13:22:28;99424.63;;;26.38;50.67
18527;BME280;9393;42.158;24.748;2023-05-25T13:25:32;99421.66;;;26.56;50.25
18527;BME280;9393;42.158;24.748;2023-05-25T13:28:36;99429.13;;;26.54;50.73
18527;BME280;9393;42.158;24.748;2023-05-25T13:31:42;99432.75;;;26.65;50.83
18527;BME280;9393;42.158;24.748;2023-05-25T13:34:46;99445.50;;;26.02;53.05
18527;BME280;9393;42.158;24.748;2023-05-25T13:37:50;99443.53;;;26.14;53.17
18527;BME280;9393;42.158;24.748;2023-05-25T13:40:54;99454.47;;;25.96;54.09
18527;BME280;9393;42.158;24.748;2023-05-25T13:43:58;99448.56;;;25.94;53.90
18527;BME280;9393;42.158;24.748;2023-05-25T13:47:05;99463.13;;;26.03;53.96
18527;BME280;9393;42.158;24.748;2023-05-25T13:50:10;99464.50;;;25.89;53.70
18527;BME280;9393;42.158;24.748;2023-05-25T13:53:14;99466.69;;;25.76;53.17
18527;BME280;9393;42.158;24.748;2023-05-25T13:56:18;99472.78;;;25.88;52.86
18527;BME280;9393;42.158;24.748;2023-05-25T13:59:22;99471.84;;;25.66;53.24
18527;BME280;9393;42.158;24.748;2023-05-25T14:02:27;99469.59;;;25.18;54.81
18527;BME280;9393;42.158;24.748;2023-05-25T14:05:33;99475.25;;;25.33;54.54
18527;BME280;9393;42.158;24.748;2023-05-25T14:08:37;99473.91;;;25.47;54.29
18527;BME280;9393;42.158;24.748;2023-05-25T14:11:41;99494.06;;;25.26;55.95
18527;BME280;9393;42.158;24.748;2023-05-25T14:14:46;99503.81;;;24.92;59.78
18527;BME280;9393;42.158;24.748;2023-05-25T14:17:51;99510.66;;;24.65;63.46
18527;BME280;9393;42.158;24.748;2023-05-25T14:20:58;99508.69;;;24.26;67.54
18527;BME280;9393;42.158;24.748;2023-05-25T14:24:02;99509.59;;;24.66;67.84
18527;BME280;9393;42.158;24.748;2023-05-25T14:27:06;99498.25;;;24.59;69.95
18527;BME280;9393;42.158;24.748;2023-05-25T14:30:11;99499.75;;;24.55;70.97
18527;BME280;9393;42.158;24.748;2023-05-25T14:33:17;99504.94;;;24.73;71.71
18527;BME280;9393;42.158;24.748;2023-05-25T14:36:21;99504.84;;;24.45;71.28
18527;BME280;9393;42.158;24.748;2023-05-25T14:39:25;99492.72;;;24.37;70.88
18527;BME280;9393;42.158;24.748;2023-05-25T14:42:29;99496.84;;;24.45;71.10
18527;BME280;9393;42.158;24.748;2023-05-25T14:45:33;99498.03;;;24.26;69.88
18527;BME280;9393;42.158;24.748;2023-05-25T14:48:39;99492.22;;;24.17;70.55
18527;BME280;9393;42.158;24.748;2023-05-25T14:51:43;99489.22;;;24.25;68.43
18527;BME280;9393;42.158;24.748;2023-05-25T14:54:47;99486.56;;;24.37;66.84
18527;BME280;9393;42.158;24.748;2023-05-25T14:57:51;99493.25;;;24.28;65.73
18527;BME280;9393;42.158;24.748;2023-05-25T15:00:55;99503.72;;;24.29;65.84
18527;BME280;9393;42.158;24.748;2023-05-25T15:04:01;99501.50;;;24.26;65.83
18527;BME280;9393;42.158;24.748;2023-05-25T15:07:05;99508.22;;;24.29;65.37
18527;BME280;9393;42.158;24.748;2023-05-25T15:10:12;99502.59;;;23.95;63.15
18527;BME280;9393;42.158;24.748;2023-05-25T15:13:16;99505.53;;;23.64;61.99
18527;BME280;9393;42.158;24.748;2023-05-25T15:16:24;99512.06;;;23.50;61.45
18527;BME280;9393;42.158;24.748;2023-05-25T15:19:29;99509.88;;;23.47;62.25
18527;BME280;9393;42.158;24.748;2023-05-25T15:22:33;99511.13;;;23.74;61.46
18527;BME280;9393;42.158;24.748;2023-05-25T15:25:37;99509.81;;;24.06;61.75
18527;BME280;9393;42.158;24.748;2023-05-25T15:28:41;99496.56;;;24.00;60.27
18527;BME280;9393;42.158;24.748;2023-05-25T15:31:49;99495.19;;;23.97;58.48
18527;BME280;9393;42.158;24.748;2023-05-25T15:34:55;99496.06;;;23.68;58.95
18527;BME280;9393;42.158;24.748;2023-05-25T15:37:59;99487.88;;;23.81;59.62
18527;BME280;9393;42.158;24.748;2023-05-25T15:41:04;99487.31;;;24.02;58.69
18527;BME280;9393;42.158;24.748;2023-05-25T15:44:08;99478.84;;;23.82;58.22
18527;BME280;9393;42.158;24.748;2023-05-25T15:47:13;99473.38;;;23.77;59.39
18527;BME280;9393;42.158;24.748;2023-05-25T15:50:19;99474.94;;;24.08;56.24
18527;BME280;9393;42.158;24.748;2023-05-25T15:53:23;99470.47;;;24.20;58.13
18527;BME280;9393;42.158;24.748;2023-05-25T15:56:27;99472.66;;;24.23;57.93
18527;BME280;9393;42.158;24.748;2023-05-25T15:59:31;99476.72;;;24.26;58.59
18527;BME280;9393;42.158;24.748;2023-05-25T16:02:35;99467.09;;;24.25;58.23
18527;BME280;9393;42.158;24.748;2023-05-25T16:05:40;99470.91;;;24.29;58.12
18527;BME280;9393;42.158;24.748;2023-05-25T16:08:45;99470.47;;;24.20;58.74
18527;BME280;9393;42.158;24.748;2023-05-25T16:11:49;99461.06;;;24.18;58.74
18527;BME280;9393;42.158;24.748;2023-05-25T16:14:53;99461.78;;;24.13;60.50
18527;BME280;9393;42.158;24.748;2023-05-25T16:17:57;99465.78;;;23.92;61.13
18527;BME280;9393;42.158;24.748;2023-05-25T16:21:04;99463.78;;;23.88;61.38
18527;BME280;9393;42.158;24.748;2023-05-25T16:24:08;99464.97;;;23.50;63.16
18527;BME280;9393;42.158;24.748;2023-05-25T16:27:12;99461.50;;;23.50;62.86